sensor_id;sensor_type;location;lat;lon;timestamp;P1;durP1;ratioP1;P2;durP2;ratioP2
45007;SDS011;30743;52.008;5.644;2023-11-21T00:02:17;7.07;;;4.95;;
45007;SDS011;30743;52.008;5.644;2023-11-21T00:04:43;6.93;;;4.20;;
45007;SDS011;30743;52.008;5.644;2023-11-21T00:07:08;6.47;;;3.70;;
45007;SDS011;30743;52.008;5.644;2023-11-21T00:09:34;7.47;;;4.10;;
45007;SDS011;30743;52.008;5.644;2023-11-21T00:12:01;7.72;;;4.45;;
45007;SDS011;30743;52.008;5.644;2023-11-21T00:14:27;21.17;;;5.82;;
45007;SDS011;30743;52.008;5.644;2023-11-21T00:16:53;86.85;;;10.82;;
45007;SDS011;30743;52.008;5.644;2023-11-21T00:19:18;28.52;;;6.95;;
45007;SDS011;30743;52.008;5.644;2023-11-21T00:21:44;65.28;;;10.73;;
45007;SDS011;30743;52.008;5.644;2023-11-21T00:24:10;13.57;;;7.28;;
45007;SDS011;30743;52.008;5.644;2023-11-21T00:26:38;47.50;;;8.07;;
45007;SDS011;30743;52.008;5.644;2023-11-21T00:29:04;13.57;;;6.18;;
45007;SDS011;30743;52.008;5.644;2023-11-21T00:31:33;12.02;;;5.90;;
45007;SDS011;30743;52.008;5.644;2023-11-21T00:34:02;11.43;;;5.10;;
45007;SDS011;30743;52.008;5.644;2023-11-21T00:36:31;11.63;;;5.82;;
45007;SDS011;30743;52.008;5.644;2023-11-21T00:38:57;129.57;;;16.08;;
45007;SDS011;30743;52.008;5.644;2023-11-21T00:41:24;60.17;;;11.25;;
45007;SDS011;30743;52.008;5.644;2023-11-21T00:43:52;51.17;;;8.10;;
45007;SDS011;30743;52.008;5.644;2023-11-21T00:46:18;38.00;;;7.60;;
45007;SDS011;30743;52.008;5.644;2023-11-21T00:48:43;26.30;;;7.15;;
45007;SDS011;30743;52.008;5.644;2023-11-21T00:51:09;23.20;;;7.28;;
45007;SDS011;30743;52.008;5.644;2023-11-21T00:53:35;31.88;;;7.05;;
45007;SDS011;30743;52.008;5.644;2023-11-21T00:56:00;72.78;;;9.13;;
45007;SDS011;30743;52.008;5.644;2023-11-21T00:58:26;63.05;;;10.00;;
45007;SDS011;30743;52.008;5.644;2023-11-21T01:00:52;53.97;;;7.53;;
45007;SDS011;30743;52.008;5.644;2023-11-21T01:03:18;28.67;;;6.93;;
45007;SDS011;30743;52.008;5.644;2023-11-21T01:05:43;16.05;;;5.80;;
45007;SDS011;30743;52.008;5.644;2023-11-21T01:08:10;15.85;;;4.82;;
45007;SDS011;30743;52.008;5.644;2023-11-21T01:10:36;11.48;;;5.22;;
45007;SDS011;30743;52.008;5.644;2023-11-21T01:13:01;23.30;;;6.55;;
45007;SDS011;30743;52.008;5.644;2023-11-21T01:15:30;16.20;;;6.05;;
45007;SDS011;30743;52.008;5.644;2023-11-21T01:17:56;9.98;;;5.93;;
45007;SDS011;30743;52.008;5.644;2023-11-21T01:20:21;16.00;;;6.15;;
45007;SDS011;30743;52.008;5.644;2023-11-21T01:22:47;32.05;;;8.02;;
45007;SDS011;30743;52.008;5.644;2023-11-21T01:25:14;43.47;;;8.20;;
45007;SDS011;30743;52.008;5.644;2023-11-21T01:27:41;67.80;;;8.88;;
45007;SDS011;30743;52.008;5.644;2023-11-21T01:30:07;25.02;;;9.10;;
45007;SDS011;30743;52.008;5.644;2023-11-21T01:32:35;35.88;;;10.05;;
45007;SDS011;30743;52.008;5.644;2023-11-21T01:35:01;13.60;;;6.53;;
45007;SDS011;30743;52.008;5.644;2023-11-21T01:37:27;14.20;;;6.93;;
45007;SDS011;30743;52.008;5.644;2023-11-21T01:39:53;24.98;;;8.77;;
45007;SDS011;30743;52.008;5.644;2023-11-21T01:42:20;14.98;;;7.20;;
45007;SDS011;30743;52.008;5.644;2023-11-21T01:44:46;46.72;;;10.07;;
45007;SDS011;30743;52.008;5.644;2023-11-21T01:47:11;64.57;;;11.32;;
45007;SDS011;30743;52.008;5.644;2023-11-21T01:49:39;78.90;;;12.95;;
45007;SDS011;30743;52.008;5.644;2023-11-21T01:52:04;27.48;;;10.32;;
45007;SDS011;30743;52.008;5.644;2023-11-21T01:54:31;63.22;;;13.23;;
45007;SDS011;30743;52.008;5.644;2023-11-21T01:56:58;65.18;;;11.82;;
45007;SDS011;30743;52.008;5.644;2023-11-21T01:59:28;96.47;;;13.45;;
45007;SDS011;30743;52.008;5.644;2023-11-21T02:01:59;96.05;;;12.60;;
45007;SDS011;30743;52.008;5.644;2023-11-21T02:04:25;107.85;;;12.00;;
45007;SDS011;30743;52.008;5.644;2023-11-21T02:06:50;46.92;;;9.50;;
45007;SDS011;30743;52.008;5.644;2023-11-21T02:09:16;43.42;;;8.30;;
45007;SDS011;30743;52.008;5.644;2023-11-21T02:11:42;57.90;;;9.65;;
45007;SDS011;30743;52.008;5.644;2023-11-21T02:14:09;43.67;;;8.80;;
45007;SDS011;30743;52.008;5.644;2023-11-21T02:16:35;44.28;;;8.63;;
45007;SDS011;30743;52.008;5.644;2023-11-21T02:19:02;56.38;;;11.20;;
45007;SDS011;30743;52.008;5.644;2023-11-21T02:21:34;44.25;;;10.02;;
45007;SDS011;30743;52.008;5.644;2023-11-21T02:24:01;59.78;;;10.52;;
45007;SDS011;30743;52.008;5.644;2023-11-21T02:26:26;38.35;;;11.80;;
45007;SDS011;30743;52.008;5.644;2023-11-21T02:28:52;22.35;;;9.35;;
45007;SDS011;30743;52.008;5.644;2023-11-21T02:31:18;23.17;;;8.60;;
45007;SDS011;30743;52.008;5.644;2023-11-21T02:33:44;17.85;;;8.63;;
45007;SDS011;30743;52.008;5.644;2023-11-21T02:36:09;22.42;;;9.13;;
45007;SDS011;30743;52.008;5.644;2023-11-21T02:38:35;18.15;;;9.07;;
45007;SDS011;30743;52.008;5.644;2023-11-21T02:41:00;25.30;;;10.13;;
45007;SDS011;30743;52.008;5.644;2023-11-21T02:43:26;52.47;;;11.60;;
45007;SDS011;30743;52.008;5.644;2023-11-21T02:45:51;42.63;;;11.38;;
45007;SDS011;30743;52.008;5.644;2023-11-21T02:48:17;34.55;;;9.85;;
45007;SDS011;30743;52.008;5.644;2023-11-21T02:50:42;19.88;;;8.77;;
45007;SDS011;30743;52.008;5.644;2023-11-21T02:53:08;19.63;;;8.77;;
45007;SDS011;30743;52.008;5.644;2023-11-21T02:55:35;12.80;;;8.18;;
45007;SDS011;30743;52.008;5.644;2023-11-21T02:58:01;11.30;;;8.25;;
45007;SDS011;30743;52.008;5.644;2023-11-21T03:00:28;17.08;;;8.00;;
45007;SDS011;30743;52.008;5.644;2023-11-21T03:02:55;16.90;;;8.40;;
45007;SDS011;30743;52.008;5.644;2023-11-21T03:05:21;14.40;;;8.05;;
45007;SDS011;30743;52.008;5.644;2023-11-21T03:07:46;21.88;;;9.25;;
45007;SDS011;30743;52.008;5.644;2023-11-21T03:10:12;42.10;;;9.48;;
45007;SDS011;30743;52.008;5.644;2023-11-21T03:12:38;19.90;;;7.85;;
45007;SDS011;30743;52.008;5.644;2023-11-21T03:15:07;29.73;;;8.32;;
45007;SDS011;30743;52.008;5.644;2023-11-21T03:17:33;10.77;;;7.95;;
45007;SDS011;30743;52.008;5.644;2023-11-21T03:19:59;9.85;;;7.28;;
45007;SDS011;30743;52.008;5.644;2023-11-21T03:22:25;10.52;;;7.88;;
45007;SDS011;30743;52.008;5.644;2023-11-21T03:24:51;10.30;;;7.80;;
45007;SDS011;30743;52.008;5.644;2023-11-21T03:27:17;12.20;;;8.10;;
45007;SDS011;30743;52.008;5.644;2023-11-21T03:29:43;12.80;;;8.20;;
45007;SDS011;30743;52.008;5.644;2023-11-21T03:32:10;11.38;;;8.02;;
45007;SDS011;30743;52.008;5.644;2023-11-21T03:34:42;14.82;;;8.02;;
45007;SDS011;30743;52.008;5.644;2023-11-21T03:37:22;14.70;;;8.75;;
45007;SDS011;30743;52.008;5.644;2023-11-21T03:39:48;10.70;;;7.80;;
45007;SDS011;30743;52.008;5.644;2023-11-21T03:42:14;13.93;;;8.32;;
45007;SDS011;30743;52.008;5.644;2023-11-21T03:44:39;11.98;;;8.25;;
45007;SDS011;30743;52.008;5.644;2023-11-21T03:47:05;12.30;;;8.15;;
45007;SDS011;30743;52.008;5.644;2023-11-21T03:49:30;11.10;;;8.20;;
45007;SDS011;30743;52.008;5.644;2023-11-21T03:51:56;11.98;;;7.63;;
45007;SDS011;30743;52.008;5.644;2023-11-21T03:54:21;14.00;;;8.10;;
45007;SDS011;30743;52.008;5.644;2023-11-21T03:56:47;13.70;;;7.95;;
45007;SDS011;30743;52.008;5.644;2023-11-21T03:59:13;10.65;;;7.30;;
45007;SDS011;30743;52.008;5.644;2023-11-21T04:01:38;10.50;;;7.68;;
45007;SDS011;30743;52.008;5.644;2023-11-21T04:04:04;13.38;;;7.13;;
45007;SDS011;30743;52.008;5.644;2023-11-21T04:06:29;12.20;;;7.97;;
45007;SDS011;30743;52.008;5.644;2023-11-21T04:08:55;10.50;;;7.45;;
45007;SDS011;30743;52.008;5.644;2023-11-21T04:11:20;9.95;;;7.53;;
45007;SDS011;30743;52.008;5.644;2023-11-21T04:13:46;9.35;;;7.20;;
45007;SDS011;30743;52.008;5.644;2023-11-21T04:16:12;11.77;;;7.40;;
45007;SDS011;30743;52.008;5.644;2023-11-21T04:18:38;9.27;;;7.18;;
45007;SDS011;30743;52.008;5.644;2023-11-21T04:21:07;11.10;;;7.80;;
45007;SDS011;30743;52.008;5.644;2023-11-21T04:23:33;11.70;;;7.68;;
45007;SDS011;30743;52.008;5.644;2023-11-21T04:25:59;11.60;;;7.50;;
45007;SDS011;30743;52.008;5.644;2023-11-21T04:28:27;10.88;;;7.28;;
45007;SDS011;30743;52.008;5.644;2023-11-21T04:30:53;11.38;;;7.55;;
45007;SDS011;30743;52.008;5.644;2023-11-21T04:33:19;12.07;;;7.72;;
45007;SDS011;30743;52.008;5.644;2023-11-21T04:35:44;11.02;;;7.30;;
45007;SDS011;30743;52.008;5.644;2023-11-21T04:38:11;11.80;;;8.38;;
45007;SDS011;30743;52.008;5.644;2023-11-21T04:40:36;12.48;;;7.80;;
45007;SDS011;30743;52.008;5.644;2023-11-21T04:43:02;10.88;;;7.45;;
45007;SDS011;30743;52.008;5.644;2023-11-21T04:45:29;10.25;;;7.65;;
45007;SDS011;30743;52.008;5.644;2023-11-21T04:47:54;9.52;;;7.18;;
45007;SDS011;30743;52.008;5.644;2023-11-21T04:50:20;11.00;;;7.53;;
45007;SDS011;30743;52.008;5.644;2023-11-21T04:52:45;11.75;;;6.55;;
45007;SDS011;30743;52.008;5.644;2023-11-21T04:55:11;11.25;;;6.95;;
45007;SDS011;30743;52.008;5.644;2023-11-21T04:57:36;12.07;;;7.22;;
45007;SDS011;30743;52.008;5.644;2023-11-21T05:00:05;11.02;;;7.32;;
45007;SDS011;30743;52.008;5.644;2023-11-21T05:02:34;11.32;;;7.43;;
45007;SDS011;30743;52.008;5.644;2023-11-21T05:05:00;11.05;;;7.22;;
45007;SDS011;30743;52.008;5.644;2023-11-21T05:07:26;10.82;;;7.60;;
45007;SDS011;30743;52.008;5.644;2023-11-21T05:09:54;11.43;;;7.18;;
45007;SDS011;30743;52.008;5.644;2023-11-21T05:12:21;13.45;;;7.72;;
45007;SDS011;30743;52.008;5.644;2023-11-21T05:14:50;13.05;;;7.40;;
45007;SDS011;30743;52.008;5.644;2023-11-21T05:17:16;11.55;;;8.07;;
45007;SDS011;30743;52.008;5.644;2023-11-21T05:19:42;9.68;;;7.75;;
45007;SDS011;30743;52.008;5.644;2023-11-21T05:22:10;13.75;;;7.60;;
45007;SDS011;30743;52.008;5.644;2023-11-21T05:24:37;13.02;;;7.90;;
45007;SDS011;30743;52.008;5.644;2023-11-21T05:27:04;13.02;;;7.30;;
45007;SDS011;30743;52.008;5.644;2023-11-21T05:29:29;11.68;;;7.68;;
45007;SDS011;30743;52.008;5.644;2023-11-21T05:31:55;11.02;;;7.45;;
45007;SDS011;30743;52.008;5.644;2023-11-21T05:34:20;12.82;;;7.68;;
45007;SDS011;30743;52.008;5.644;2023-11-21T05:36:48;13.50;;;8.13;;
45007;SDS011;30743;52.008;5.644;2023-11-21T05:39:15;10.52;;;7.72;;
45007;SDS011;30743;52.008;5.644;2023-11-21T05:41:42;9.82;;;6.80;;
45007;SDS011;30743;52.008;5.644;2023-11-21T05:44:08;13.00;;;7.13;;
45007;SDS011;30743;52.008;5.644;2023-11-21T05:46:34;12.50;;;6.70;;
45007;SDS011;30743;52.008;5.644;2023-11-21T05:48:59;11.23;;;7.93;;
45007;SDS011;30743;52.008;5.644;2023-11-21T05:51:25;9.32;;;7.18;;
45007;SDS011;30743;52.008;5.644;2023-11-21T05:53:51;13.77;;;7.85;;
45007;SDS011;30743;52.008;5.644;2023-11-21T05:56:16;10.43;;;6.65;;
45007;SDS011;30743;52.008;5.644;2023-11-21T05:58:43;14.45;;;7.18;;
45007;SDS011;30743;52.008;5.644;2023-11-21T06:01:08;10.73;;;7.28;;
45007;SDS011;30743;52.008;5.644;2023-11-21T06:03:34;9.73;;;6.32;;
45007;SDS011;30743;52.008;5.644;2023-11-21T06:06:00;13.00;;;7.72;;
45007;SDS011;30743;52.008;5.644;2023-11-21T06:08:25;12.35;;;7.43;;
45007;SDS011;30743;52.008;5.644;2023-11-21T06:10:51;13.82;;;7.35;;
45007;SDS011;30743;52.008;5.644;2023-11-21T06:13:17;10.20;;;6.82;;
45007;SDS011;30743;52.008;5.644;2023-11-21T06:15:49;12.35;;;7.05;;
45007;SDS011;30743;52.008;5.644;2023-11-21T06:18:14;12.40;;;7.13;;
45007;SDS011;30743;52.008;5.644;2023-11-21T06:20:40;13.50;;;7.30;;
45007;SDS011;30743;52.008;5.644;2023-11-21T06:23:05;12.43;;;7.57;;
45007;SDS011;30743;52.008;5.644;2023-11-21T06:25:31;10.52;;;7.50;;
45007;SDS011;30743;52.008;5.644;2023-11-21T06:28:01;12.25;;;7.63;;
45007;SDS011;30743;52.008;5.644;2023-11-21T06:30:26;10.73;;;6.78;;
45007;SDS011;30743;52.008;5.644;2023-11-21T06:32:53;12.13;;;7.22;;
45007;SDS011;30743;52.008;5.644;2023-11-21T06:35:20;13.00;;;7.10;;
45007;SDS011;30743;52.008;5.644;2023-11-21T06:37:45;16.55;;;7.07;;
45007;SDS011;30743;52.008;5.644;2023-11-21T06:40:14;14.45;;;7.18;;
45007;SDS011;30743;52.008;5.644;2023-11-21T06:45:09;10.68;;;7.07;;
45007;SDS011;30743;52.008;5.644;2023-11-21T06:47:36;13.32;;;7.85;;
45007;SDS011;30743;52.008;5.644;2023-11-21T06:50:03;9.80;;;7.18;;
45007;SDS011;30743;52.008;5.644;2023-11-21T06:52:29;10.25;;;7.00;;
45007;SDS011;30743;52.008;5.644;2023-11-21T06:54:54;8.50;;;6.45;;
45007;SDS011;30743;52.008;5.644;2023-11-21T06:57:20;13.15;;;7.63;;
45007;SDS011;30743;52.008;5.644;2023-11-21T06:59:47;10.38;;;7.00;;
45007;SDS011;30743;52.008;5.644;2023-11-21T07:02:13;11.18;;;7.05;;
45007;SDS011;30743;52.008;5.644;2023-11-21T07:04:39;12.57;;;6.80;;
45007;SDS011;30743;52.008;5.644;2023-11-21T07:07:05;12.10;;;7.00;;
45007;SDS011;30743;52.008;5.644;2023-11-21T07:09:32;10.35;;;7.30;;
45007;SDS011;30743;52.008;5.644;2023-11-21T07:11:58;12.60;;;7.53;;
45007;SDS011;30743;52.008;5.644;2023-11-21T07:14:23;10.15;;;7.38;;
45007;SDS011;30743;52.008;5.644;2023-11-21T07:16:49;12.45;;;7.68;;
45007;SDS011;30743;52.008;5.644;2023-11-21T07:19:14;15.90;;;7.65;;
45007;SDS011;30743;52.008;5.644;2023-11-21T07:21:40;12.55;;;7.38;;
45007;SDS011;30743;52.008;5.644;2023-11-21T07:24:06;10.35;;;7.15;;
45007;SDS011;30743;52.008;5.644;2023-11-21T07:26:33;15.10;;;8.18;;
45007;SDS011;30743;52.008;5.644;2023-11-21T07:28:59;11.68;;;7.13;;
45007;SDS011;30743;52.008;5.644;2023-11-21T07:31:26;12.55;;;7.18;;
45007;SDS011;30743;52.008;5.644;2023-11-21T07:33:52;14.02;;;7.45;;
45007;SDS011;30743;52.008;5.644;2023-11-21T07:36:17;15.18;;;7.97;;
45007;SDS011;30743;52.008;5.644;2023-11-21T07:38:45;13.27;;;7.70;;
45007;SDS011;30743;52.008;5.644;2023-11-21T07:41:11;16.13;;;7.32;;
45007;SDS011;30743;52.008;5.644;2023-11-21T07:43:40;12.60;;;7.93;;
45007;SDS011;30743;52.008;5.644;2023-11-21T07:46:06;13.70;;;7.32;;
45007;SDS011;30743;52.008;5.644;2023-11-21T07:48:33;12.02;;;8.05;;
45007;SDS011;30743;52.008;5.644;2023-11-21T07:50:59;11.60;;;7.32;;
45007;SDS011;30743;52.008;5.644;2023-11-21T07:53:32;14.88;;;7.85;;
45007;SDS011;30743;52.008;5.644;2023-11-21T07:56:07;13.15;;;7.97;;
45007;SDS011;30743;52.008;5.644;2023-11-21T07:58:34;12.00;;;7.20;;
45007;SDS011;30743;52.008;5.644;2023-11-21T08:01:00;13.05;;;8.07;;
45007;SDS011;30743;52.008;5.644;2023-11-21T08:03:27;13.57;;;7.40;;
45007;SDS011;30743;52.008;5.644;2023-11-21T08:05:55;13.68;;;7.90;;
45007;SDS011;30743;52.008;5.644;2023-11-21T08:08:21;16.17;;;8.50;;
45007;SDS011;30743;52.008;5.644;2023-11-21T08:10:47;14.27;;;7.63;;
45007;SDS011;30743;52.008;5.644;2023-11-21T08:13:33;16.55;;;8.23;;
45007;SDS011;30743;52.008;5.644;2023-11-21T08:15:58;11.38;;;8.18;;
45007;SDS011;30743;52.008;5.644;2023-11-21T08:18:27;12.73;;;8.10;;
45007;SDS011;30743;52.008;5.644;2023-11-21T08:20:54;13.18;;;7.63;;
45007;SDS011;30743;52.008;5.644;2023-11-21T08:23:20;14.70;;;8.25;;
45007;SDS011;30743;52.008;5.644;2023-11-21T08:25:46;14.52;;;7.55;;
45007;SDS011;30743;52.008;5.644;2023-11-21T08:28:12;13.13;;;8.20;;
45007;SDS011;30743;52.008;5.644;2023-11-21T08:30:39;11.75;;;7.60;;
45007;SDS011;30743;52.008;5.644;2023-11-21T08:33:06;13.63;;;7.93;;
45007;SDS011;30743;52.008;5.644;2023-11-21T08:35:33;14.23;;;8.23;;
45007;SDS011;30743;52.008;5.644;2023-11-21T08:37:59;12.30;;;7.97;;
45007;SDS011;30743;52.008;5.644;2023-11-21T08:40:25;15.07;;;8.35;;
45007;SDS011;30743;52.008;5.644;2023-11-21T08:42:50;17.08;;;9.10;;
45007;SDS011;30743;52.008;5.644;2023-11-21T08:45:17;15.65;;;8.65;;
45007;SDS011;30743;52.008;5.644;2023-11-21T08:47:43;16.33;;;9.82;;
45007;SDS011;30743;52.008;5.644;2023-11-21T08:50:09;15.02;;;8.63;;
45007;SDS011;30743;52.008;5.644;2023-11-21T08:52:37;14.60;;;8.48;;
45007;SDS011;30743;52.008;5.644;2023-11-21T08:55:03;17.00;;;8.77;;
45007;SDS011;30743;52.008;5.644;2023-11-21T08:57:35;15.57;;;9.05;;
45007;SDS011;30743;52.008;5.644;2023-11-21T09:00:02;15.15;;;8.35;;
45007;SDS011;30743;52.008;5.644;2023-11-21T09:02:31;19.15;;;8.82;;
45007;SDS011;30743;52.008;5.644;2023-11-21T09:04:56;14.50;;;8.65;;
45007;SDS011;30743;52.008;5.644;2023-11-21T09:07:24;12.60;;;8.40;;
45007;SDS011;30743;52.008;5.644;2023-11-21T09:09:50;15.45;;;8.30;;
45007;SDS011;30743;52.008;5.644;2023-11-21T09:12:16;20.35;;;10.45;;
45007;SDS011;30743;52.008;5.644;2023-11-21T09:14:42;15.52;;;9.45;;
45007;SDS011;30743;52.008;5.644;2023-11-21T09:17:09;19.98;;;9.73;;
45007;SDS011;30743;52.008;5.644;2023-11-21T09:19:39;22.05;;;9.63;;
45007;SDS011;30743;52.008;5.644;2023-11-21T09:22:05;16.02;;;9.07;;
45007;SDS011;30743;52.008;5.644;2023-11-21T09:24:34;19.13;;;9.95;;
45007;SDS011;30743;52.008;5.644;2023-11-21T09:26:59;18.23;;;10.00;;
45007;SDS011;30743;52.008;5.644;2023-11-21T09:29:28;20.17;;;10.20;;
45007;SDS011;30743;52.008;5.644;2023-11-21T09:31:54;16.98;;;9.77;;
45007;SDS011;30743;52.008;5.644;2023-11-21T09:34:20;16.35;;;10.13;;
45007;SDS011;30743;52.008;5.644;2023-11-21T09:36:46;18.58;;;9.88;;
45007;SDS011;30743;52.008;5.644;2023-11-21T09:39:12;19.60;;;10.98;;
45007;SDS011;30743;52.008;5.644;2023-11-21T09:41:41;16.33;;;11.32;;
45007;SDS011;30743;52.008;5.644;2023-11-21T09:44:17;15.35;;;10.23;;
45007;SDS011;30743;52.008;5.644;2023-11-21T09:46:45;18.75;;;11.30;;
45007;SDS011;30743;52.008;5.644;2023-11-21T09:49:17;18.77;;;11.15;;
45007;SDS011;30743;52.008;5.644;2023-11-21T09:51:47;18.83;;;10.38;;
45007;SDS011;30743;52.008;5.644;2023-11-21T09:54:14;17.17;;;10.60;;
45007;SDS011;30743;52.008;5.644;2023-11-21T09:56:42;13.85;;;9.48;;
45007;SDS011;30743;52.008;5.644;2023-11-21T09:59:10;15.27;;;9.23;;
45007;SDS011;30743;52.008;5.644;2023-11-21T10:01:40;14.63;;;9.02;;
45007;SDS011;30743;52.008;5.644;2023-11-21T10:04:07;12.93;;;7.97;;
45007;SDS011;30743;52.008;5.644;2023-11-21T10:06:39;12.07;;;7.93;;
45007;SDS011;30743;52.008;5.644;2023-11-21T10:09:10;13.18;;;8.07;;
45007;SDS011;30743;52.008;5.644;2023-11-21T10:11:40;12.27;;;8.45;;
45007;SDS011;30743;52.008;5.644;2023-11-21T10:14:12;14.25;;;9.35;;
45007;SDS011;30743;52.008;5.644;2023-11-21T10:16:39;13.50;;;8.80;;
45007;SDS011;30743;52.008;5.644;2023-11-21T10:19:05;15.15;;;9.63;;
45007;SDS011;30743;52.008;5.644;2023-11-21T10:21:34;14.40;;;9.02;;
45007;SDS011;30743;52.008;5.644;2023-11-21T10:24:00;13.50;;;8.23;;
45007;SDS011;30743;52.008;5.644;2023-11-21T10:26:26;12.15;;;8.38;;
45007;SDS011;30743;52.008;5.644;2023-11-21T10:28:54;13.48;;;8.75;;
45007;SDS011;30743;52.008;5.644;2023-11-21T10:31:26;12.23;;;8.45;;
45007;SDS011;30743;52.008;5.644;2023-11-21T10:33:52;13.75;;;8.90;;
45007;SDS011;30743;52.008;5.644;2023-11-21T10:36:27;13.55;;;8.85;;
45007;SDS011;30743;52.008;5.644;2023-11-21T10:38:53;12.15;;;8.75;;
45007;SDS011;30743;52.008;5.644;2023-11-21T10:41:19;13.45;;;8.65;;
45007;SDS011;30743;52.008;5.644;2023-11-21T10:43:45;13.90;;;9.38;;
45007;SDS011;30743;52.008;5.644;2023-11-21T10:46:11;13.70;;;9.60;;
45007;SDS011;30743;52.008;5.644;2023-11-21T10:48:38;13.82;;;8.73;;
45007;SDS011;30743;52.008;5.644;2023-11-21T10:51:09;11.32;;;8.68;;
45007;SDS011;30743;52.008;5.644;2023-11-21T10:53:40;13.40;;;8.48;;
45007;SDS011;30743;52.008;5.644;2023-11-21T10:56:10;10.88;;;7.78;;
45007;SDS011;30743;52.008;5.644;2023-11-21T10:58:42;11.30;;;7.18;;
45007;SDS011;30743;52.008;5.644;2023-11-21T11:01:08;11.95;;;7.35;;
45007;SDS011;30743;52.008;5.644;2023-11-21T11:03:37;9.50;;;6.75;;
45007;SDS011;30743;52.008;5.644;2023-11-21T11:06:06;10.57;;;7.00;;
45007;SDS011;30743;52.008;5.644;2023-11-21T11:08:40;11.13;;;7.85;;
45007;SDS011;30743;52.008;5.644;2023-11-21T11:11:06;11.57;;;7.13;;
45007;SDS011;30743;52.008;5.644;2023-11-21T11:13:32;13.95;;;7.20;;
45007;SDS011;30743;52.008;5.644;2023-11-21T11:15:58;10.80;;;6.88;;
45007;SDS011;30743;52.008;5.644;2023-11-21T11:18:29;11.85;;;6.97;;
45007;SDS011;30743;52.008;5.644;2023-11-21T11:20:55;11.38;;;7.50;;
45007;SDS011;30743;52.008;5.644;2023-11-21T11:34:54;11.98;;;8.23;;
45007;SDS011;30743;52.008;5.644;2023-11-21T11:37:26;11.95;;;7.68;;
45007;SDS011;30743;52.008;5.644;2023-11-21T11:39:52;12.63;;;7.40;;
45007;SDS011;30743;52.008;5.644;2023-11-21T11:42:19;13.30;;;7.47;;
45007;SDS011;30743;52.008;5.644;2023-11-21T11:44:47;13.77;;;8.20;;
45007;SDS011;30743;52.008;5.644;2023-11-21T11:49:54;14.57;;;8.45;;
45007;SDS011;30743;52.008;5.644;2023-11-21T11:52:32;16.55;;;7.88;;
45007;SDS011;30743;52.008;5.644;2023-11-21T11:54:59;12.70;;;7.72;;
45007;SDS011;30743;52.008;5.644;2023-11-21T11:57:25;14.63;;;8.75;;
45007;SDS011;30743;52.008;5.644;2023-11-21T12:02:56;13.20;;;7.40;;
45007;SDS011;30743;52.008;5.644;2023-11-21T12:05:24;11.85;;;6.95;;
45007;SDS011;30743;52.008;5.644;2023-11-21T12:07:56;11.13;;;6.78;;
45007;SDS011;30743;52.008;5.644;2023-11-21T12:10:35;10.85;;;6.78;;
45007;SDS011;30743;52.008;5.644;2023-11-21T12:13:03;11.82;;;6.28;;
45007;SDS011;30743;52.008;5.644;2023-11-21T12:15:32;8.93;;;6.25;;
45007;SDS011;30743;52.008;5.644;2023-11-21T12:17:58;9.65;;;5.97;;
45007;SDS011;30743;52.008;5.644;2023-11-21T12:20:24;9.68;;;5.93;;
45007;SDS011;30743;52.008;5.644;2023-11-21T12:22:54;8.07;;;6.32;;
45007;SDS011;30743;52.008;5.644;2023-11-21T12:25:25;8.65;;;5.97;;
45007;SDS011;30743;52.008;5.644;2023-11-21T12:27:57;9.38;;;5.45;;
45007;SDS011;30743;52.008;5.644;2023-11-21T12:30:30;8.35;;;5.25;;
45007;SDS011;30743;52.008;5.644;2023-11-21T12:32:57;10.05;;;5.90;;
45007;SDS011;30743;52.008;5.644;2023-11-21T12:35:24;8.88;;;5.90;;
45007;SDS011;30743;52.008;5.644;2023-11-21T12:37:52;9.93;;;5.95;;
45007;SDS011;30743;52.008;5.644;2023-11-21T12:40:18;9.95;;;6.40;;
45007;SDS011;30743;52.008;5.644;2023-11-21T12:42:45;11.57;;;6.20;;
45007;SDS011;30743;52.008;5.644;2023-11-21T12:47:46;11.88;;;6.82;;
45007;SDS011;30743;52.008;5.644;2023-11-21T12:50:25;11.27;;;7.35;;
45007;SDS011;30743;52.008;5.644;2023-11-21T12:52:54;10.70;;;6.97;;
45007;SDS011;30743;52.008;5.644;2023-11-21T12:55:23;12.13;;;7.55;;
45007;SDS011;30743;52.008;5.644;2023-11-21T12:57:51;14.38;;;8.48;;
45007;SDS011;30743;52.008;5.644;2023-11-21T13:00:19;12.63;;;8.63;;
45007;SDS011;30743;52.008;5.644;2023-11-21T13:02:55;13.85;;;8.30;;
45007;SDS011;30743;52.008;5.644;2023-11-21T13:05:27;13.70;;;8.65;;
45007;SDS011;30743;52.008;5.644;2023-11-21T13:07:59;12.82;;;8.32;;
45007;SDS011;30743;52.008;5.644;2023-11-21T13:10:28;12.60;;;7.85;;
45007;SDS011;30743;52.008;5.644;2023-11-21T13:12:59;17.17;;;8.73;;
45007;SDS011;30743;52.008;5.644;2023-11-21T13:15:29;12.40;;;7.82;;
45007;SDS011;30743;52.008;5.644;2023-11-21T13:17:56;11.38;;;8.00;;
45007;SDS011;30743;52.008;5.644;2023-11-21T13:20:22;11.27;;;7.43;;
45007;SDS011;30743;52.008;5.644;2023-11-21T13:22:50;11.63;;;7.28;;
45007;SDS011;30743;52.008;5.644;2023-11-21T13:25:19;10.77;;;7.20;;
45007;SDS011;30743;52.008;5.644;2023-11-21T13:27:54;11.43;;;6.93;;
45007;SDS011;30743;52.008;5.644;2023-11-21T13:30:20;9.95;;;6.85;;
45007;SDS011;30743;52.008;5.644;2023-11-21T13:32:54;9.38;;;6.93;;
45007;SDS011;30743;52.008;5.644;2023-11-21T13:35:22;8.60;;;6.57;;
45007;SDS011;30743;52.008;5.644;2023-11-21T13:38:09;10.05;;;7.30;;
45007;SDS011;30743;52.008;5.644;2023-11-21T13:40:56;9.13;;;6.47;;
45007;SDS011;30743;52.008;5.644;2023-11-21T13:43:24;11.15;;;6.75;;
45007;SDS011;30743;52.008;5.644;2023-11-21T13:45:51;10.43;;;6.80;;
45007;SDS011;30743;52.008;5.644;2023-11-21T13:48:26;9.45;;;6.75;;
45007;SDS011;30743;52.008;5.644;2023-11-21T13:50:59;9.57;;;6.68;;
45007;SDS011;30743;52.008;5.644;2023-11-21T13:53:33;10.55;;;6.60;;
45007;SDS011;30743;52.008;5.644;2023-11-21T13:56:02;12.68;;;7.35;;
45007;SDS011;30743;52.008;5.644;2023-11-21T13:58:28;9.43;;;6.30;;
45007;SDS011;30743;52.008;5.644;2023-11-21T14:01:11;9.70;;;6.57;;
45007;SDS011;30743;52.008;5.644;2023-11-21T14:03:58;9.57;;;6.63;;
45007;SDS011;30743;52.008;5.644;2023-11-21T14:06:40;9.55;;;6.10;;
45007;SDS011;30743;52.008;5.644;2023-11-21T14:09:13;9.38;;;6.43;;
45007;SDS011;30743;52.008;5.644;2023-11-21T14:11:47;7.72;;;4.85;;
45007;SDS011;30743;52.008;5.644;2023-11-21T14:14:21;6.68;;;4.38;;
45007;SDS011;30743;52.008;5.644;2023-11-21T14:16:49;7.60;;;4.45;;
45007;SDS011;30743;52.008;5.644;2023-11-21T14:19:16;8.18;;;4.30;;
45007;SDS011;30743;52.008;5.644;2023-11-21T14:21:42;7.80;;;4.80;;
45007;SDS011;30743;52.008;5.644;2023-11-21T14:24:08;8.60;;;5.15;;
45007;SDS011;30743;52.008;5.644;2023-11-21T14:26:34;7.65;;;4.88;;
45007;SDS011;30743;52.008;5.644;2023-11-21T14:29:00;7.53;;;4.90;;
45007;SDS011;30743;52.008;5.644;2023-11-21T14:31:27;7.97;;;4.97;;
45007;SDS011;30743;52.008;5.644;2023-11-21T14:33:55;8.85;;;4.65;;
45007;SDS011;30743;52.008;5.644;2023-11-21T14:36:21;9.13;;;5.53;;
45007;SDS011;30743;52.008;5.644;2023-11-21T14:38:49;9.32;;;5.50;;
45007;SDS011;30743;52.008;5.644;2023-11-21T14:41:14;8.65;;;5.25;;
45007;SDS011;30743;52.008;5.644;2023-11-21T14:43:40;10.68;;;6.60;;
45007;SDS011;30743;52.008;5.644;2023-11-21T14:46:06;11.40;;;6.90;;
45007;SDS011;30743;52.008;5.644;2023-11-21T14:48:35;10.80;;;6.33;;
45007;SDS011;30743;52.008;5.644;2023-11-21T14:51:23;11.90;;;7.55;;
45007;SDS011;30743;52.008;5.644;2023-11-21T14:53:48;11.48;;;7.53;;
45007;SDS011;30743;52.008;5.644;2023-11-21T14:56:20;13.38;;;7.97;;
45007;SDS011;30743;52.008;5.644;2023-11-21T14:58:51;13.27;;;7.65;;
45007;SDS011;30743;52.008;5.644;2023-11-21T15:01:19;13.35;;;7.97;;